Time;durP1;ratioP1;P1;durP2;ratioP2;P2;SDS_P1;SDS_P2;PMS_P1;PMS_P2;Temp;Humidity;BMP_temperature;BMP_pressure;BME280_temperature;BME280_humidity;BME280_pressure;Samples;Min_cycle;Max_cycle;Signal;HPM_P1;HPM_P2
2022/01/25 00:08:24;;;;;;;44.35;25.08;;;;;;;;;;5005215;28;20492;-78
2022/01/25 00:31:17;;;;;;;41.30;21.45;;;;;;;;;;5003174;28;20031;-80
2022/01/25 00:33:53;;;;;;;37.90;20.65;;;;;;;;;;5001788;28;20053;-79
2022/01/25 00:36:22;;;;;;;41.30;22.65;;;;;;;;;;5000429;28;20033;-79
2022/01/25 00:38:48;;;;;;;38.08;21.30;;;;;;;;;;5003561;28;20034;-79
2022/01/25 00:41:16;;;;;;;44.42;23.15;;;;;;;;;;5001782;28;20042;-79
2022/01/25 00:43:42;;;;;;;39.33;23.10;;;;;;;;;;5002716;28;20030;-80
2022/01/25 00:46:11;;;;;;;38.60;22.90;;;;;;;;;;5002126;28;20061;-79
2022/01/25 00:51:19;;;;;;;40.33;22.40;;;;;;;;;;5002382;28;20042;-79
2022/01/25 00:54:11;;;;;;;39.22;22.13;;;;;;;;;;5002154;28;20037;-80
2022/01/25 00:56:40;;;;;;;34.38;21.00;;;;;;;;;;5001783;28;20062;-78
2022/01/25 00:59:07;;;;;;;40.55;22.13;;;;;;;;;;5002596;28;20030;-79
2022/01/25 01:01:36;;;;;;;38.13;20.83;;;;;;;;;;5001378;28;20034;-79
2022/01/25 01:04:03;;;;;;;37.78;21.65;;;;;;;;;;5000114;28;20404;-78
2022/01/25 01:06:29;;;;;;;37.10;21.25;;;;;;;;;;4999644;28;20019;-78
2022/01/25 01:08:55;;;;;;;37.78;21.30;;;;;;;;;;4999532;28;20037;-78
2022/01/25 01:11:28;;;;;;;38.88;21.70;;;;;;;;;;5000236;28;20026;-78
2022/01/25 01:14:02;;;;;;;37.95;22.55;;;;;;;;;;5000893;28;20477;-78
2022/01/25 01:35:50;;;;;;;37.90;21.83;;;;;;;;;;5002204;28;20034;-78
2022/01/25 01:43:37;;;;;;;38.83;21.10;;;;;;;;;;5001609;28;20050;-79
2022/01/25 01:46:28;;;;;;;35.33;19.60;;;;;;;;;;5001747;28;20504;-78
2022/01/25 01:49:02;;;;;;;36.63;20.17;;;;;;;;;;5002790;28;20101;-80
2022/01/25 01:51:35;;;;;;;33.80;18.50;;;;;;;;;;5004146;28;20027;-79
2022/01/25 01:54:01;;;;;;;;;;;;;;;;;;5006318;28;20109;-79
2022/01/25 01:56:27;;;;;;;31.58;18.27;;;;;;;;;;5005375;28;19910;-79
2022/01/25 01:58:54;;;;;;;34.63;19.25;;;;;;;;;;5004440;28;20026;-79
2022/01/25 02:01:21;;;;;;;36.03;19.65;;;;;;;;;;5004770;28;20033;-79
2022/01/25 02:03:47;;;;;;;38.20;20.15;;;;;;;;;;5005117;28;20030;-80
2022/01/25 02:06:15;;;;;;;39.65;19.30;;;;;;;;;;5005321;28;20027;-79
2022/01/25 02:08:41;;;;;;;36.13;19.75;;;;;;;;;;5005243;28;20081;-78
2022/01/25 02:11:09;;;;;;;36.70;18.42;;;;;;;;;;5004023;28;20030;-78
2022/01/25 02:13:37;;;;;;;37.90;20.63;;;;;;;;;;5003480;28;20018;-77
2022/01/25 02:16:07;;;;;;;35.28;20.10;;;;;;;;;;5003917;28;20026;-78
2022/01/25 02:24:03;;;;;;;34.85;17.70;;;;;;;;;;5006126;28;20105;-79
2022/01/25 02:26:31;;;;;;;35.15;18.55;;;;;;;;;;5006210;28;20109;-79
2022/01/25 02:28:57;;;;;;;31.23;16.67;;;;;;;;;;5006636;28;20109;-79
2022/01/25 02:31:24;;;;;;;34.28;17.65;;;;;;;;;;5005314;28;20035;-79
2022/01/25 02:33:50;;;;;;;30.70;18.15;;;;;;;;;;5005629;28;20090;-79
2022/01/25 02:36:27;;;;;;;33.03;18.20;;;;;;;;;;5005977;28;20035;-80
2022/01/25 02:38:54;;;;;;;32.63;17.65;;;;;;;;;;5005073;28;20089;-79
2022/01/25 02:41:21;;;;;;;31.55;18.00;;;;;;;;;;5006553;28;20033;-79
2022/01/25 02:43:47;;;;;;;33.75;18.50;;;;;;;;;;5008570;28;20026;-79
2022/01/25 02:48:54;;;;;;;32.80;17.88;;;;;;;;;;5004227;28;20045;-80
2022/01/25 02:51:23;;;;;;;38.22;19.48;;;;;;;;;;4983570;28;20536;-78
2022/01/25 02:53:49;;;;;;;31.88;16.73;;;;;;;;;;4984177;28;20037;-79
2022/01/25 02:56:16;;;;;;;31.08;17.42;;;;;;;;;;5003592;28;20049;-78
2022/01/25 02:58:42;;;;;;;30.80;16.63;;;;;;;;;;4998959;28;20049;-78
2022/01/25 03:01:08;;;;;;;33.28;18.08;;;;;;;;;;5004299;28;20077;-79
2022/01/25 03:03:34;;;;;;;36.15;18.50;;;;;;;;;;5002133;28;20050;-79
2022/01/25 03:06:02;;;;;;;30.98;17.48;;;;;;;;;;5003586;28;20061;-77
2022/01/25 03:08:28;;;;;;;29.17;16.02;;;;;;;;;;5003382;28;20065;-79
2022/01/25 03:10:54;;;;;;;29.40;16.23;;;;;;;;;;4999498;28;20121;-78
2022/01/25 03:13:27;;;;;;;35.33;17.23;;;;;;;;;;5002189;28;20069;-78
2022/01/25 03:15:58;;;;;;;;;;;;;;;;;;5003341;28;20515;-77
2022/01/25 03:21:03;;;;;;;;;;;;;;;;;;5005353;28;20033;-79
2022/01/25 03:23:31;;;;;;;35.50;16.67;;;;;;;;;;5003005;28;20368;-78
2022/01/25 03:25:57;;;;;;;28.30;16.50;;;;;;;;;;5003183;28;20026;-79
2022/01/25 03:28:24;;;;;;;27.50;16.33;;;;;;;;;;5003770;28;20102;-78
2022/01/25 03:30:52;;;;;;;31.95;17.60;;;;;;;;;;5003093;28;20093;-79
2022/01/25 03:33:18;;;;;;;30.70;16.13;;;;;;;;;;5002903;28;20373;-80
2022/01/25 03:35:46;;;;;;;28.65;17.38;;;;;;;;;;5004102;28;20038;-79
2022/01/25 03:38:12;;;;;;;30.40;16.85;;;;;;;;;;5003546;28;20030;-80
2022/01/25 03:40:38;;;;;;;27.92;17.40;;;;;;;;;;5003695;28;20030;-78
2022/01/25 03:43:06;;;;;;;31.73;16.48;;;;;;;;;;5002973;28;20063;-78
2022/01/25 03:45:35;;;;;;;34.00;17.67;;;;;;;;;;5003704;28;20045;-79
2022/01/25 03:50:37;;;;;;;30.55;16.98;;;;;;;;;;5002187;28;20037;-78
2022/01/25 03:53:04;;;;;;;30.45;17.98;;;;;;;;;;4999177;28;20026;-79
2022/01/25 03:55:31;;;;;;;31.25;17.67;;;;;;;;;;4999638;28;20042;-78
2022/01/25 03:57:58;;;;;;;32.65;17.77;;;;;;;;;;5001616;28;20033;-79
2022/01/25 04:00:24;;;;;;;35.30;19.63;;;;;;;;;;5001629;28;20391;-79
2022/01/25 04:03:15;;;;;;;34.20;18.70;;;;;;;;;;4995753;28;20030;-78
2022/01/25 04:08:08;;;;;;;31.98;18.38;;;;;;;;;;5003160;28;20023;-79
2022/01/25 04:10:34;;;;;;;33.47;18.30;;;;;;;;;;5002310;28;20042;-79
2022/01/25 04:13:01;;;;;;;26.88;16.75;;;;;;;;;;5001410;28;20034;-79
2022/01/25 04:15:27;;;;;;;33.90;18.48;;;;;;;;;;5002919;28;20060;-78
2022/01/25 04:20:39;;;;;;;31.10;16.83;;;;;;;;;;5001240;28;20081;-79
2022/01/25 04:25:51;;;;;;;33.28;19.10;;;;;;;;;;4998358;28;20102;-79
2022/01/25 04:28:17;;;;;;;32.60;17.63;;;;;;;;;;4997862;28;20097;-79
2022/01/25 04:30:43;;;;;;;33.42;20.10;;;;;;;;;;4995461;28;20084;-80
2022/01/25 04:33:23;;;;;;;36.92;19.75;;;;;;;;;;4997731;28;20027;-80
2022/01/25 04:35:59;;;;;;;36.17;19.95;;;;;;;;;;4997882;28;20031;-79
2022/01/25 04:49:29;;;;;;;31.65;18.50;;;;;;;;;;5000375;28;20077;-79
2022/01/25 04:52:04;;;;;;;35.38;18.55;;;;;;;;;;5003045;28;20030;-81
2022/01/25 05:00:05;;;;;;;32.60;19.38;;;;;;;;;;4999276;28;20041;-79
2022/01/25 05:05:09;;;;;;;34.65;18.80;;;;;;;;;;5003698;28;20086;-80
2022/01/25 05:07:53;;;;;;;37.08;19.60;;;;;;;;;;5014040;28;20444;-79
2022/01/25 05:10:20;;;;;;;37.30;20.98;;;;;;;;;;5003226;28;20018;-79
2022/01/25 05:12:52;;;;;;;37.65;19.08;;;;;;;;;;5003363;28;20026;-80
2022/01/25 05:15:26;;;;;;;36.85;20.55;;;;;;;;;;5001917;28;20448;-79
2022/01/25 05:18:17;;;;;;;37.40;19.58;;;;;;;;;;5002420;28;20033;-79
2022/01/25 05:23:28;;;;;;;33.65;19.30;;;;;;;;;;4986803;28;20042;-79
2022/01/25 05:25:54;;;;;;;35.40;18.95;;;;;;;;;;5001753;28;20053;-78
2022/01/25 05:28:20;;;;;;;37.28;19.85;;;;;;;;;;5001818;28;20026;-78
2022/01/25 05:30:47;;;;;;;36.80;19.73;;;;;;;;;;5000229;28;20030;-80
2022/01/25 05:33:13;;;;;;;36.85;21.15;;;;;;;;;;5000471;28;20030;-79
2022/01/25 05:35:39;;;;;;;37.55;20.48;;;;;;;;;;4999969;28;20043;-78
2022/01/25 05:38:05;;;;;;;37.00;19.80;;;;;;;;;;5000983;28;20038;-79
2022/01/25 05:40:45;;;;;;;37.28;20.38;;;;;;;;;;5001412;28;20027;-78
2022/01/25 05:48:12;;;;;;;36.78;19.27;;;;;;;;;;4996302;28;20034;-78
2022/01/25 05:50:39;;;;;;;34.03;19.33;;;;;;;;;;5002561;28;20025;-78
2022/01/25 05:53:05;;;;;;;33.20;19.17;;;;;;;;;;4997247;28;20121;-78
2022/01/25 05:55:31;;;;;;;37.85;20.13;;;;;;;;;;5003219;28;20072;-79
2022/01/25 05:57:57;;;;;;;40.22;20.58;;;;;;;;;;5002291;28;20018;-79
2022/01/25 06:00:23;;;;;;;39.08;20.50;;;;;;;;;;5000656;28;20034;-78
2022/01/25 06:02:54;;;;;;;39.38;20.55;;;;;;;;;;4998681;28;20038;-78
2022/01/25 06:05:23;;;;;;;38.65;21.20;;;;;;;;;;5000608;28;20029;-78
2022/01/25 06:07:49;;;;;;;40.85;22.25;;;;;;;;;;5000655;28;20439;-79
2022/01/25 06:10:16;;;;;;;41.22;23.13;;;;;;;;;;5002222;28;20081;-79
2022/01/25 06:12:44;;;;;;;44.05;23.50;;;;;;;;;;5001035;28;20026;-79
2022/01/25 06:15:10;;;;;;;38.58;21.88;;;;;;;;;;5000905;28;20105;-79
2022/01/25 06:17:36;;;;;;;41.50;22.38;;;;;;;;;;5000574;28;20118;-79
2022/01/25 06:20:03;;;;;;;49.75;23.77;;;;;;;;;;4999102;28;20072;-79
2022/01/25 06:22:30;;;;;;;53.38;26.17;;;;;;;;;;4997237;28;20110;-78
2022/01/25 06:24:56;;;;;;;57.00;27.77;;;;;;;;;;4998309;28;20023;-79
2022/01/25 06:27:22;;;;;;;58.70;27.38;;;;;;;;;;5000412;28;20481;-78
2022/01/25 06:29:49;;;;;;;55.33;27.83;;;;;;;;;;5000466;28;20456;-79
2022/01/25 06:32:16;;;;;;;61.47;27.83;;;;;;;;;;4999290;28;20091;-79
2022/01/25 06:34:46;;;;;;;55.85;28.05;;;;;;;;;;4999864;28;20037;-78
2022/01/25 06:37:13;;;;;;;62.28;30.48;;;;;;;;;;5002782;28;20026;-80
2022/01/25 06:39:39;;;;;;;63.25;29.20;;;;;;;;;;4999589;28;20018;-79
2022/01/25 06:42:07;;;;;;;63.03;32.60;;;;;;;;;;5002458;28;20536;-79
2022/01/25 06:44:35;;;;;;;65.50;32.17;;;;;;;;;;5003114;28;20078;-79
2022/01/25 06:47:01;;;;;;;61.53;32.38;;;;;;;;;;5004623;28;20018;-79
2022/01/25 06:49:27;;;;;;;62.90;30.17;;;;;;;;;;5003398;28;20097;-80
2022/01/25 06:51:54;;;;;;;60.53;30.63;;;;;;;;;;5002716;28;20374;-79
2022/01/25 06:54:20;;;;;;;52.33;28.15;;;;;;;;;;5002859;28;20022;-80
2022/01/25 06:56:46;;;;;;;50.35;27.52;;;;;;;;;;5002753;28;20046;-80
2022/01/25 06:59:12;;;;;;;55.45;28.88;;;;;;;;;;5003416;28;20030;-81
2022/01/25 07:01:38;;;;;;;60.00;28.60;;;;;;;;;;5002766;28;20030;-79
2022/01/25 07:04:10;;;;;;;56.97;27.00;;;;;;;;;;4999477;28;20025;-79
2022/01/25 07:06:37;;;;;;;51.83;25.77;;;;;;;;;;5002904;28;20018;-80
2022/01/25 07:09:03;;;;;;;55.17;26.55;;;;;;;;;;5002476;28;20041;-78
2022/01/25 07:11:29;;;;;;;54.60;24.45;;;;;;;;;;5001325;28;20030;-79
2022/01/25 07:13:56;;;;;;;57.25;26.08;;;;;;;;;;5000434;28;20033;-79
2022/01/25 07:16:24;;;;;;;51.13;25.45;;;;;;;;;;5001496;28;20241;-78
2022/01/25 07:18:50;;;;;;;56.80;26.60;;;;;;;;;;5001323;28;20022;-78
2022/01/25 07:21:17;;;;;;;46.35;24.15;;;;;;;;;;5001214;28;20439;-78
2022/01/25 07:23:43;;;;;;;50.95;24.70;;;;;;;;;;5000771;28;20137;-79
2022/01/25 07:26:09;;;;;;;51.13;25.15;;;;;;;;;;5002205;28;20081;-78
2022/01/25 07:28:36;;;;;;;49.80;24.80;;;;;;;;;;5002359;28;20015;-78
2022/01/25 07:31:03;;;;;;;50.80;23.25;;;;;;;;;;5001315;28;20186;-80
2022/01/25 07:33:29;;;;;;;45.10;23.25;;;;;;;;;;5001676;28;20030;-79
2022/01/25 07:35:56;;;;;;;47.88;25.27;;;;;;;;;;5002472;28;20053;-79
2022/01/25 07:38:22;;;;;;;50.00;24.73;;;;;;;;;;5002510;28;20022;-80
2022/01/25 07:40:49;;;;;;;51.38;24.35;;;;;;;;;;5003661;28;20404;-78
2022/01/25 07:43:15;;;;;;;48.22;24.33;;;;;;;;;;5003644;28;20037;-78
2022/01/25 07:45:42;;;;;;;47.78;22.80;;;;;;;;;;5002452;28;20034;-80
2022/01/25 07:48:10;;;;;;;41.33;22.50;;;;;;;;;;5003598;28;20021;-78
2022/01/25 07:50:39;;;;;;;45.05;22.50;;;;;;;;;;5002045;28;20022;-79
2022/01/25 07:53:05;;;;;;;45.50;21.35;;;;;;;;;;5001208;28;20050;-78
2022/01/25 07:55:31;;;;;;;38.97;19.73;;;;;;;;;;5001620;28;20033;-79
2022/01/25 07:57:59;;;;;;;41.92;19.98;;;;;;;;;;5002374;28;20030;-79
2022/01/25 08:00:25;;;;;;;39.90;19.27;;;;;;;;;;5000439;28;20485;-78
2022/01/25 08:02:51;;;;;;;36.83;20.25;;;;;;;;;;5002410;28;20026;-79
2022/01/25 08:05:19;;;;;;;42.80;22.20;;;;;;;;;;5000766;28;20086;-78
2022/01/25 08:07:45;;;;;;;36.75;19.30;;;;;;;;;;5000395;28;20022;-79
2022/01/25 08:10:12;;;;;;;38.05;19.42;;;;;;;;;;5002176;28;20030;-79
2022/01/25 08:12:38;;;;;;;35.97;19.45;;;;;;;;;;5002205;28;20050;-79
2022/01/25 08:15:05;;;;;;;29.70;15.90;;;;;;;;;;5001744;28;20041;-80
2022/01/25 08:17:32;;;;;;;32.58;17.45;;;;;;;;;;5002558;28;20023;-79
2022/01/25 08:19:58;;;;;;;28.77;13.98;;;;;;;;;;5000571;28;20113;-79
2022/01/25 08:22:27;;;;;;;33.63;17.17;;;;;;;;;;5002052;28;20024;-80
2022/01/25 08:24:53;;;;;;;31.77;16.45;;;;;;;;;;5001210;28;20030;-79
2022/01/25 08:27:22;;;;;;;28.20;15.00;;;;;;;;;;5002633;28;20050;-79
2022/01/25 08:29:48;;;;;;;25.63;13.85;;;;;;;;;;5000537;28;20034;-81
2022/01/25 08:32:14;;;;;;;25.90;14.57;;;;;;;;;;5000411;28;20034;-79
2022/01/25 08:34:43;;;;;;;26.38;13.38;;;;;;;;;;5001321;28;20030;-80
2022/01/25 08:37:09;;;;;;;22.50;13.32;;;;;;;;;;5000600;28;20037;-79
2022/01/25 08:39:35;;;;;;;23.33;12.95;;;;;;;;;;5001081;28;20023;-79
2022/01/25 08:42:02;;;;;;;26.05;14.07;;;;;;;;;;5001974;28;20046;-78
2022/01/25 08:44:28;;;;;;;25.92;12.77;;;;;;;;;;5002099;28;20419;-79
2022/01/25 08:46:54;;;;;;;24.73;13.50;;;;;;;;;;5002062;28;20046;-78
2022/01/25 08:49:21;;;;;;;22.02;11.77;;;;;;;;;;5002117;28;20030;-79
2022/01/25 08:51:48;;;;;;;25.42;11.80;;;;;;;;;;5000657;28;20030;-77
2022/01/25 08:54:14;;;;;;;22.55;12.60;;;;;;;;;;5001485;28;20026;-77
2022/01/25 08:56:41;;;;;;;22.42;13.43;;;;;;;;;;5001091;28;20368;-80
2022/01/25 08:59:08;;;;;;;28.15;13.75;;;;;;;;;;5003827;28;20382;-79
2022/01/25 09:01:34;;;;;;;20.65;13.02;;;;;;;;;;5000274;28;20065;-79
2022/01/25 09:04:03;;;;;;;26.40;13.70;;;;;;;;;;5002183;28;20069;-79
2022/01/25 09:06:29;;;;;;;24.35;12.68;;;;;;;;;;5000380;28;20080;-80
2022/01/25 09:09:03;;;;;;;23.75;12.45;;;;;;;;;;5002105;28;20027;-79
2022/01/25 09:11:30;;;;;;;23.13;12.02;;;;;;;;;;4992821;28;20026;-78
2022/01/25 09:13:56;;;;;;;20.02;12.25;;;;;;;;;;5001622;28;20034;-79
2022/01/25 09:16:22;;;;;;;25.88;13.70;;;;;;;;;;5000558;28;20027;-80
2022/01/25 09:18:48;;;;;;;19.45;12.32;;;;;;;;;;4999976;28;20184;-80
2022/01/25 09:21:14;;;;;;;21.75;11.57;;;;;;;;;;4999652;28;20038;-79
2022/01/25 09:23:41;;;;;;;20.55;11.90;;;;;;;;;;5000587;28;20022;-79
2022/01/25 09:26:07;;;;;;;22.27;11.27;;;;;;;;;;5001698;28;20023;-79
2022/01/25 09:28:34;;;;;;;20.98;12.48;;;;;;;;;;4999295;28;20038;-78
2022/01/25 09:31:01;;;;;;;22.38;12.15;;;;;;;;;;4999838;28;20022;-80
2022/01/25 09:33:27;;;;;;;23.90;11.93;;;;;;;;;;5000700;28;20033;-78
2022/01/25 09:35:55;;;;;;;23.80;13.90;;;;;;;;;;4999834;28;20033;-79
2022/01/25 09:38:21;;;;;;;19.02;10.98;;;;;;;;;;4999493;28;20030;-79
2022/01/25 09:40:47;;;;;;;24.25;11.35;;;;;;;;;;4999723;28;20030;-80
2022/01/25 09:43:24;;;;;;;21.08;11.82;;;;;;;;;;5001308;28;20184;-80
2022/01/25 09:45:50;;;;;;;20.55;12.05;;;;;;;;;;5000462;28;20039;-78
2022/01/25 09:48:17;;;;;;;18.60;11.43;;;;;;;;;;5001810;28;20014;-79
2022/01/25 09:50:44;;;;;;;17.55;11.27;;;;;;;;;;5002738;28;20049;-79
2022/01/25 09:53:10;;;;;;;18.42;9.57;;;;;;;;;;5001486;28;20090;-78
2022/01/25 09:55:40;;;;;;;15.95;9.70;;;;;;;;;;5001442;28;20373;-77
2022/01/25 09:58:07;;;;;;;16.10;9.80;;;;;;;;;;5000607;28;20029;-79
2022/01/25 10:00:33;;;;;;;17.15;9.32;;;;;;;;;;4998023;28;20095;-78
2022/01/25 10:05:33;;;;;;;19.67;10.68;;;;;;;;;;4999494;28;20042;-79
2022/01/25 10:08:02;;;;;;;18.85;9.63;;;;;;;;;;5000164;28;20049;-78
2022/01/25 10:10:29;;;;;;;16.98;10.02;;;;;;;;;;5002973;28;20037;-79
2022/01/25 10:12:56;;;;;;;16.95;10.35;;;;;;;;;;5003311;28;20018;-79
2022/01/25 10:15:26;;;;;;;16.83;9.23;;;;;;;;;;5001901;28;20029;-79
2022/01/25 10:17:53;;;;;;;18.85;10.82;;;;;;;;;;5002893;28;20493;-79
2022/01/25 10:20:30;;;;;;;17.10;8.77;;;;;;;;;;5004982;28;20031;-80
2022/01/25 10:22:59;;;;;;;16.52;10.68;;;;;;;;;;5004414;28;20026;-79
2022/01/25 10:25:29;;;;;;;19.80;11.18;;;;;;;;;;5004416;28;20022;-79
2022/01/25 10:28:03;;;;;;;15.90;8.63;;;;;;;;;;5002325;28;20030;-79
2022/01/25 10:30:36;;;;;;;17.23;8.70;;;;;;;;;;5003260;28;20050;-79
2022/01/25 10:33:02;;;;;;;15.10;9.30;;;;;;;;;;5003740;28;20044;-80
2022/01/25 10:35:29;;;;;;;17.17;8.27;;;;;;;;;;5004202;28;20358;-78
2022/01/25 10:37:56;;;;;;;17.40;8.80;;;;;;;;;;5003702;28;20022;-79
2022/01/25 10:40:36;;;;;;;17.27;9.38;;;;;;;;;;5003633;28;20031;-77
2022/01/25 10:43:05;;;;;;;16.77;10.00;;;;;;;;;;5003107;28;20485;-78
2022/01/25 10:45:31;;;;;;;17.13;9.80;;;;;;;;;;5003981;28;20039;-79
2022/01/25 10:47:57;;;;;;;17.30;8.68;;;;;;;;;;5002835;28;20082;-79
2022/01/25 10:50:34;;;;;;;16.38;9.38;;;;;;;;;;5002123;28;20017;-79
2022/01/25 10:53:03;;;;;;;16.33;7.93;;;;;;;;;;4997877;28;20022;-79
2022/01/25 10:55:40;;;;;;;15.65;9.18;;;;;;;;;;5002389;28;20066;-79
2022/01/25 10:58:07;;;;;;;15.40;9.02;;;;;;;;;;5002199;28;20019;-80
2022/01/25 11:00:34;;;;;;;17.38;9.52;;;;;;;;;;5002231;28;20030;-79
2022/01/25 11:03:01;;;;;;;19.27;9.80;;;;;;;;;;5005073;28;20030;-80
2022/01/25 11:05:31;;;;;;;16.67;9.63;;;;;;;;;;5004489;28;20069;-79
2022/01/25 11:08:09;;;;;;;16.70;9.00;;;;;;;;;;5001971;28;20030;-80
2022/01/25 11:10:35;;;;;;;20.05;10.80;;;;;;;;;;5001544;28;20486;-79
2022/01/25 11:13:21;;;;;;;15.60;9.85;;;;;;;;;;5002803;28;20034;-77
2022/01/25 11:15:47;;;;;;;19.20;10.90;;;;;;;;;;5001219;28;20121;-78
2022/01/25 11:18:13;;;;;;;17.00;9.45;;;;;;;;;;5002102;28;20029;-79
2022/01/25 11:20:39;;;;;;;16.83;10.88;;;;;;;;;;5001599;28;20062;-80
2022/01/25 11:23:06;;;;;;;18.20;9.57;;;;;;;;;;5002359;28;20019;-79
2022/01/25 11:25:32;;;;;;;20.63;10.52;;;;;;;;;;5003483;28;20504;-80
2022/01/25 11:27:58;;;;;;;18.80;9.70;;;;;;;;;;5000706;28;20037;-79
2022/01/25 11:30:25;;;;;;;18.90;10.40;;;;;;;;;;5009855;28;20019;-77
2022/01/25 11:32:53;;;;;;;17.00;10.65;;;;;;;;;;4999795;28;20023;-78
2022/01/25 11:35:23;;;;;;;19.27;10.65;;;;;;;;;;5000067;28;20081;-78
2022/01/25 11:37:50;;;;;;;21.73;10.45;;;;;;;;;;5000765;28;20037;-79
2022/01/25 11:40:22;;;;;;;18.80;8.90;;;;;;;;;;5001642;28;20019;-78
2022/01/25 11:42:49;;;;;;;19.52;10.40;;;;;;;;;;5001562;28;20041;-78
2022/01/25 11:45:19;;;;;;;26.80;10.88;;;;;;;;;;5000766;28;20050;-79
2022/01/25 11:47:48;;;;;;;18.38;9.90;;;;;;;;;;5002349;28;20504;-79
2022/01/25 11:50:14;;;;;;;26.95;11.05;;;;;;;;;;5003162;28;20022;-79
2022/01/25 11:52:51;;;;;;;17.00;9.00;;;;;;;;;;5002726;28;20054;-79
2022/01/25 11:55:17;;;;;;;24.55;12.63;;;;;;;;;;5000040;28;20441;-79
2022/01/25 11:57:56;;;;;;;20.27;11.07;;;;;;;;;;5001392;28;20575;-79
2022/01/25 12:00:35;;;;;;;21.92;11.77;;;;;;;;;;5005104;28;20080;-79
2022/01/25 12:03:02;;;;;;;17.98;10.13;;;;;;;;;;5005216;28;20034;-78
2022/01/25 12:05:28;;;;;;;17.40;9.90;;;;;;;;;;5000572;28;20019;-80
2022/01/25 12:08:15;;;;;;;18.40;9.43;;;;;;;;;;4981888;28;20034;-78
2022/01/25 12:10:48;;;;;;;19.52;10.10;;;;;;;;;;4988570;28;20038;-78
2022/01/25 12:13:28;;;;;;;19.65;9.95;;;;;;;;;;5001696;28;20027;-79
2022/01/25 12:16:13;;;;;;;18.77;8.60;;;;;;;;;;5014607;28;20106;-79
2022/01/25 12:18:57;;;;;;;18.23;9.57;;;;;;;;;;5000907;28;20054;-79
2022/01/25 12:21:42;;;;;;;17.63;10.07;;;;;;;;;;5002852;28;20030;-79
2022/01/25 12:24:21;;;;;;;18.15;9.65;;;;;;;;;;5001360;28;20034;-79
2022/01/25 12:27:03;;;;;;;17.83;9.15;;;;;;;;;;5000349;28;20085;-79
2022/01/25 12:29:32;;;;;;;16.40;9.23;;;;;;;;;;5001147;28;20376;-79
2022/01/25 12:32:18;;;;;;;17.80;10.38;;;;;;;;;;4999852;28;20041;-79
2022/01/25 12:34:56;;;;;;;16.13;9.10;;;;;;;;;;5001576;28;20502;-79
2022/01/25 12:37:54;;;;;;;18.10;9.30;;;;;;;;;;5001773;28;20037;-79
2022/01/25 12:40:29;;;;;;;18.17;9.48;;;;;;;;;;4999933;28;20057;-79
2022/01/25 12:43:05;;;;;;;17.85;9.52;;;;;;;;;;5001740;28;20023;-78
2022/01/25 12:45:33;;;;;;;17.63;10.73;;;;;;;;;;5000279;28;20068;-78
2022/01/25 12:48:00;;;;;;;17.30;9.55;;;;;;;;;;4998662;28;20101;-79
2022/01/25 12:50:27;;;;;;;17.85;10.05;;;;;;;;;;5000186;28;20076;-78
2022/01/25 12:52:53;;;;;;;17.58;9.45;;;;;;;;;;4999774;28;20041;-80
2022/01/25 12:55:24;;;;;;;20.50;10.98;;;;;;;;;;5012387;28;20488;-80
2022/01/25 12:57:51;;;;;;;17.67;9.35;;;;;;;;;;5000166;28;20152;-79
2022/01/25 13:00:19;;;;;;;16.25;10.32;;;;;;;;;;5001671;28;20085;-79
2022/01/25 13:02:45;;;;;;;18.90;10.90;;;;;;;;;;4999397;28;20072;-79
2022/01/25 13:05:16;;;;;;;20.63;10.07;;;;;;;;;;5000876;28;20027;-80
2022/01/25 13:07:42;;;;;;;21.55;10.23;;;;;;;;;;5000191;28;20437;-79
2022/01/25 13:10:10;;;;;;;20.05;11.55;;;;;;;;;;4999822;28;20027;-79
2022/01/25 13:12:54;;;;;;;17.65;10.13;;;;;;;;;;5000342;28;20022;-79
2022/01/25 13:15:51;;;;;;;19.13;10.23;;;;;;;;;;5003763;28;20022;-79
2022/01/25 13:18:17;;;;;;;20.63;11.43;;;;;;;;;;5001241;28;20429;-80
2022/01/25 13:20:47;;;;;;;18.88;10.82;;;;;;;;;;5001168;28;20038;-79
2022/01/25 13:23:13;;;;;;;20.27;11.07;;;;;;;;;;5002192;28;20029;-80
2022/01/25 13:26:06;;;;;;;18.52;10.27;;;;;;;;;;5001165;28;20026;-80
2022/01/25 13:28:37;;;;;;;19.85;11.48;;;;;;;;;;4999858;28;20022;-79
2022/01/25 13:31:07;;;;;;;16.20;9.68;;;;;;;;;;5001064;28;20619;-80
2022/01/25 13:33:34;;;;;;;19.35;10.52;;;;;;;;;;4999241;28;20031;-79
2022/01/25 13:36:01;;;;;;;19.20;10.40;;;;;;;;;;4999331;28;20034;-80
2022/01/25 13:38:30;;;;;;;21.50;10.35;;;;;;;;;;4999465;28;20029;-79
2022/01/25 13:46:12;;;;;;;20.10;11.52;;;;;;;;;;5001176;28;20042;-80
2022/01/25 13:48:38;;;;;;;20.55;11.75;;;;;;;;;;5000734;28;20530;-79
2022/01/25 13:51:06;;;;;;;21.15;10.90;;;;;;;;;;4999102;28;20049;-80
2022/01/25 13:53:32;;;;;;;22.20;11.65;;;;;;;;;;5000286;28;20023;-80
2022/01/25 13:56:00;;;;;;;21.48;10.65;;;;;;;;;;5000677;28;20061;-79
2022/01/25 13:58:30;;;;;;;20.05;10.52;;;;;;;;;;4999205;28;20030;-79
2022/01/25 14:00:57;;;;;;;22.35;11.93;;;;;;;;;;5000954;28;20026;-80
2022/01/25 14:03:28;;;;;;;22.58;11.93;;;;;;;;;;4999385;28;20046;-80
2022/01/25 14:05:55;;;;;;;18.98;11.20;;;;;;;;;;5000837;28;20034;-79
2022/01/25 14:08:34;;;;;;;19.33;11.35;;;;;;;;;;5000057;28;20030;-79
2022/01/25 14:11:03;;;;;;;18.85;11.40;;;;;;;;;;5000488;28;20114;-79
2022/01/25 14:22:33;;;;;;;19.73;11.40;;;;;;;;;;4998676;28;20065;-79
2022/01/25 14:24:58;;;;;;;22.27;11.77;;;;;;;;;;4998690;28;20034;-79
2022/01/25 14:27:34;;;;;;;22.23;11.85;;;;;;;;;;4987758;28;20027;-78
2022/01/25 14:30:01;;;;;;;21.65;11.57;;;;;;;;;;4980291;28;20481;-80
2022/01/25 14:32:36;;;;;;;22.02;11.73;;;;;;;;;;4985027;28;20036;-78
2022/01/25 14:35:06;;;;;;;17.67;10.05;;;;;;;;;;4998698;28;20031;-79
2022/01/25 14:37:32;;;;;;;21.25;12.18;;;;;;;;;;4998218;28;20046;-79
2022/01/25 14:40:06;;;;;;;19.08;11.40;;;;;;;;;;4999393;28;20045;-78
2022/01/25 14:42:32;;;;;;;23.42;10.80;;;;;;;;;;4999815;28;20034;-79
2022/01/25 14:45:06;;;;;;;21.00;10.90;;;;;;;;;;4999389;28;20057;-79
2022/01/25 14:47:37;;;;;;;21.77;11.40;;;;;;;;;;4998200;28;20029;-79
2022/01/25 14:50:07;;;;;;;20.52;10.27;;;;;;;;;;5000295;28;20026;-79
2022/01/25 14:52:35;;;;;;;21.38;12.00;;;;;;;;;;4999619;28;20062;-79
2022/01/25 14:55:01;;;;;;;20.27;10.80;;;;;;;;;;5000355;28;20022;-79
2022/01/25 14:57:40;;;;;;;21.80;11.98;;;;;;;;;;5002872;28;20453;-79
2022/01/25 15:00:06;;;;;;;20.10;10.52;;;;;;;;;;5003942;28;20526;-79
2022/01/25 15:02:36;;;;;;;21.15;10.95;;;;;;;;;;5003616;28;20022;-79
2022/01/25 15:05:03;;;;;;;20.40;10.80;;;;;;;;;;5004518;28;20027;-80
2022/01/25 15:07:33;;;;;;;19.98;11.15;;;;;;;;;;5003676;28;20042;-79
2022/01/25 15:10:01;;;;;;;22.92;11.80;;;;;;;;;;5002642;28;20021;-79
2022/01/25 15:12:33;;;;;;;21.88;11.98;;;;;;;;;;5001805;28;20026;-78
2022/01/25 15:15:13;;;;;;;24.43;12.47;;;;;;;;;;5001671;28;20023;-79
2022/01/25 15:17:39;;;;;;;20.38;11.15;;;;;;;;;;5001522;28;20027;-79
2022/01/25 15:20:07;;;;;;;20.02;11.02;;;;;;;;;;5000796;28;20031;-78
2022/01/25 15:22:33;;;;;;;25.17;13.00;;;;;;;;;;5001176;28;20022;-79
2022/01/25 15:25:00;;;;;;;29.10;14.43;;;;;;;;;;5000018;28;20110;-80
2022/01/25 15:27:29;;;;;;;27.35;15.15;;;;;;;;;;5000764;28;20374;-79
2022/01/25 15:29:58;;;;;;;30.90;17.25;;;;;;;;;;5000935;28;20265;-77
2022/01/25 15:32:24;;;;;;;28.33;15.93;;;;;;;;;;4999356;28;20026;-78
2022/01/25 15:34:50;;;;;;;29.17;16.08;;;;;;;;;;4998735;28;20026;-80
2022/01/25 15:37:16;;;;;;;24.27;14.00;;;;;;;;;;5000567;28;20346;-79
2022/01/25 15:39:43;;;;;;;23.48;13.27;;;;;;;;;;5001287;28;20561;-79
2022/01/25 15:42:11;;;;;;;25.80;14.38;;;;;;;;;;5000647;28;20041;-79
2022/01/25 15:44:42;;;;;;;23.80;12.82;;;;;;;;;;5000668;28;20038;-79
2022/01/25 15:47:08;;;;;;;21.42;12.70;;;;;;;;;;5001567;28;20034;-78
2022/01/25 15:49:35;;;;;;;22.80;13.15;;;;;;;;;;5002314;28;20041;-79
2022/01/25 15:52:03;;;;;;;23.48;13.43;;;;;;;;;;5000957;28;20139;-78
2022/01/25 15:54:29;;;;;;;24.38;13.63;;;;;;;;;;5002217;28;20030;-78
2022/01/25 15:56:56;;;;;;;23.65;13.10;;;;;;;;;;5001309;28;20038;-77
2022/01/25 15:59:23;;;;;;;25.05;13.25;;;;;;;;;;5000756;28;20030;-77
2022/01/25 16:01:52;;;;;;;23.45;13.82;;;;;;;;;;4981725;28;20035;-78
2022/01/25 16:04:19;;;;;;;25.50;14.10;;;;;;;;;;4998559;28;20018;-78
2022/01/25 16:06:45;;;;;;;23.60;12.75;;;;;;;;;;4998827;28;20030;-80
2022/01/25 16:09:11;;;;;;;27.23;14.25;;;;;;;;;;4986200;28;20106;-78
2022/01/25 16:11:40;;;;;;;22.48;12.00;;;;;;;;;;4986996;28;20030;-77
2022/01/25 16:14:06;;;;;;;22.83;12.32;;;;;;;;;;4999992;28;20030;-77
2022/01/25 16:16:33;;;;;;;24.10;12.15;;;;;;;;;;5000697;28;20038;-79
2022/01/25 16:19:02;;;;;;;25.08;13.77;;;;;;;;;;4998266;28;20515;-79
2022/01/25 16:21:29;;;;;;;24.13;12.35;;;;;;;;;;4995761;28;20029;-79
2022/01/25 16:23:58;;;;;;;25.38;14.25;;;;;;;;;;4980784;28;20130;-79
2022/01/25 16:26:24;;;;;;;23.02;13.27;;;;;;;;;;4994067;28;20050;-80
2022/01/25 16:28:51;;;;;;;24.10;13.65;;;;;;;;;;5000321;28;20110;-80